Time;durP1;ratioP1;P1;durP2;ratioP2;P2;SDS_P1;SDS_P2;PMS_P1;PMS_P2;Temp;Humidity;BMP_temperature;BMP_pressure;BME280_temperature;BME280_humidity;BME280_pressure;Samples;Min_cycle;Max_cycle;Signal;HPM_P1;HPM_P2
2023/05/13 00:00:01;;;;;;;4.27;3.17;;;;;;;10.42;100.00;98614.66;4894700;29;20238;-67
2023/05/13 00:02:31;;;;;;;5.43;3.83;;;;;;;10.45;100.00;98614.38;4898085;29;20243;-67
2023/05/13 00:05:01;;;;;;;4.67;3.27;;;;;;;10.40;100.00;98610.56;4894067;29;20640;-67
2023/05/13 00:07:28;;;;;;;6.23;3.50;;;;;;;10.34;100.00;98617.16;4900672;29;20250;-67
2023/05/13 00:10:20;;;;;;;5.87;3.17;;;;;;;10.30;100.00;98615.84;4886715;29;20285;-67
2023/05/13 00:12:48;;;;;;;3.43;3.13;;;;;;;10.27;100.00;98616.13;4892764;29;21591;-67
2023/05/13 00:15:14;;;;;;;7.37;4.10;;;;;;;10.23;100.00;98617.41;4897238;29;20221;-67
2023/05/13 00:17:41;;;;;;;4.37;3.03;;;;;;;10.23;100.00;98618.19;4897971;29;20234;-67
2023/05/13 00:20:08;;;;;;;5.77;3.10;;;;;;;10.27;100.00;98616.94;4896847;29;20334;-67
2023/05/13 00:22:35;;;;;;;3.03;2.70;;;;;;;10.25;100.00;98620.69;4898253;29;20259;-67
2023/05/13 00:25:03;;;;;;;3.67;3.27;;;;;;;10.17;100.00;98616.19;4895867;29;21265;-67
2023/05/13 00:27:31;;;;;;;3.10;2.80;;;;;;;10.08;100.00;98619.69;4898352;29;20238;-67
2023/05/13 00:30:04;;;;;;;4.57;3.47;;;;;;;10.05;100.00;98618.19;4892840;29;20481;-67
2023/05/13 00:32:31;;;;;;;3.90;3.37;;;;;;;10.02;100.00;98614.13;4900300;29;20238;-67
2023/05/13 00:35:01;;;;;;;3.50;3.00;;;;;;;9.99;100.00;98614.41;4877648;29;20252;-67
2023/05/13 00:37:28;;;;;;;4.67;2.87;;;;;;;10.03;100.00;98620.13;4883149;29;20223;-67
2023/05/13 00:40:21;;;;;;;4.60;2.93;;;;;;;9.89;100.00;98614.44;4897837;29;20594;-67
2023/05/13 00:42:48;;;;;;;3.87;2.80;;;;;;;9.86;100.00;98616.53;4895667;29;20230;-67
2023/05/13 00:45:17;;;;;;;5.27;2.67;;;;;;;9.82;100.00;98615.19;4882261;29;20297;-67
2023/05/13 00:47:44;;;;;;;4.03;2.70;;;;;;;9.82;100.00;98616.00;4895660;29;20809;-67
2023/05/13 00:50:11;;;;;;;6.00;2.50;;;;;;;9.72;100.00;98623.06;4896074;29;20233;-67
2023/05/13 00:52:39;;;;;;;2.73;2.33;;;;;;;9.66;100.00;98626.22;4880716;29;20228;-67
2023/05/13 00:55:06;;;;;;;3.87;2.63;;;;;;;9.57;100.00;98620.91;4895808;29;20587;-67
2023/05/13 00:57:33;;;;;;;3.67;2.40;;;;;;;9.51;100.00;98615.47;4898009;29;20230;-67
2023/05/13 01:00:02;;;;;;;3.07;2.77;;;;;;;9.53;100.00;98619.59;4899571;29;20246;-67
2023/05/13 01:02:39;;;;;;;3.17;2.30;;;;;;;9.57;100.00;98630.53;4902658;29;20237;-67
2023/05/13 01:05:15;;;;;;;2.77;2.40;;;;;;;9.60;100.00;98627.66;4889853;29;20249;-67
2023/05/13 01:07:54;;;;;;;4.77;2.43;;;;;;;9.73;100.00;98624.69;4882761;29;20232;-67
2023/05/13 01:10:30;;;;;;;4.60;2.40;;;;;;;9.76;100.00;98624.41;4902264;29;20228;-67
2023/05/13 01:13:00;;;;;;;4.87;2.47;;;;;;;9.86;100.00;98629.56;4896978;29;20743;-67
2023/05/13 01:15:28;;;;;;;2.63;2.30;;;;;;;9.92;100.00;98628.16;4901588;29;20225;-67
2023/05/13 01:18:02;;;;;;;6.47;2.40;;;;;;;9.92;100.00;98639.44;4900542;29;20213;-67
2023/05/13 01:20:30;;;;;;;2.80;2.20;;;;;;;9.86;100.00;98646.03;4899422;29;20230;-67
2023/05/13 01:22:59;;;;;;;2.70;2.07;;;;;;;9.92;100.00;98641.19;4895763;29;20321;-67
2023/05/13 01:25:25;;;;;;;2.40;2.00;;;;;;;9.95;100.00;98638.28;4891197;29;20241;-67
2023/05/13 01:27:52;;;;;;;4.83;2.37;;;;;;;9.93;100.00;98650.66;4898984;29;21027;-67
2023/05/13 01:30:22;;;;;;;2.63;2.20;;;;;;;10.03;100.00;98648.81;4898733;29;20237;-67
2023/05/13 01:32:51;;;;;;;3.20;2.17;;;;;;;9.99;100.00;98640.47;4881314;29;20231;-67
2023/05/13 01:35:19;;;;;;;2.30;2.10;;;;;;;9.94;100.00;98647.91;4900482;29;20218;-67
2023/05/13 01:37:47;;;;;;;2.90;2.10;;;;;;;9.89;100.00;98647.53;4898629;29;20623;-67
2023/05/13 01:40:16;;;;;;;3.87;2.10;;;;;;;9.81;100.00;98653.47;4899625;29;20230;-67
2023/05/13 01:42:43;;;;;;;3.33;1.93;;;;;;;9.71;100.00;98657.91;4882153;29;20237;-67
2023/05/13 01:45:10;;;;;;;2.33;2.13;;;;;;;9.68;100.00;98652.97;4900494;29;20244;-67
2023/05/13 01:47:38;;;;;;;2.47;2.20;;;;;;;9.67;100.00;98653.94;4884586;29;20235;-67
2023/05/13 01:50:06;;;;;;;3.00;2.47;;;;;;;9.61;100.00;98657.97;4898459;29;20316;-67
2023/05/13 01:52:34;;;;;;;3.00;2.20;;;;;;;9.59;100.00;98657.28;4890542;29;20906;-67
2023/05/13 01:55:02;;;;;;;3.27;2.13;;;;;;;9.56;100.00;98654.97;4882054;29;20261;-67
2023/05/13 01:57:31;;;;;;;3.57;2.10;;;;;;;9.51;100.00;98649.34;4876985;29;20236;-67
2023/05/13 02:00:03;;;;;;;2.57;2.33;;;;;;;9.45;100.00;98648.16;4882439;29;20235;-67
2023/05/13 02:02:29;;;;;;;2.23;2.03;;;;;;;9.39;100.00;98654.75;4898628;29;20222;-67
2023/05/13 02:05:03;;;;;;;2.67;2.47;;;;;;;9.35;100.00;98653.38;4878899;29;20252;-67
2023/05/13 02:07:30;;;;;;;5.23;2.30;;;;;;;9.40;100.00;98648.56;4869540;29;20724;-67
2023/05/13 02:10:01;;;;;;;2.50;2.30;;;;;;;9.38;100.00;98653.09;4895225;29;20239;-67
2023/05/13 02:12:28;;;;;;;2.30;2.10;;;;;;;9.38;100.00;98657.50;4899869;29;20248;-67
2023/05/13 02:15:21;;;;;;;3.90;2.47;;;;;;;9.39;100.00;98654.75;4898297;29;20312;-67
2023/05/13 02:17:47;;;;;;;2.80;2.60;;;;;;;9.38;100.00;98655.72;4897272;29;20232;-67
2023/05/13 02:20:14;;;;;;;2.60;2.40;;;;;;;9.39;100.00;98659.16;4884234;29;20257;-67
2023/05/13 02:22:40;;;;;;;3.20;2.50;;;;;;;9.39;100.00;98656.53;4885519;29;20232;-67
2023/05/13 02:25:08;;;;;;;2.60;2.40;;;;;;;9.35;100.00;98655.19;4899105;29;20258;-67
2023/05/13 02:27:36;;;;;;;5.80;2.40;;;;;;;9.34;100.00;98650.94;4899753;29;20645;-67
2023/05/13 02:30:05;;;;;;;4.00;2.53;;;;;;;9.29;100.00;98635.72;4895449;29;20257;-67
2023/05/13 02:32:33;;;;;;;2.90;2.50;;;;;;;9.30;100.00;98648.63;4900685;29;20240;-67
2023/05/13 02:35:01;;;;;;;4.30;2.87;;;;;;;9.27;100.00;98654.09;4880705;29;20242;-67
2023/05/13 02:37:27;;;;;;;2.53;2.20;;;;;;;9.22;100.00;98656.31;4885928;29;20323;-67
2023/05/13 02:40:19;;;;;;;2.67;2.40;;;;;;;9.16;100.00;98644.66;4894842;29;20240;-67
2023/05/13 02:42:47;;;;;;;3.30;3.00;;;;;;;9.16;100.00;98643.84;4897433;29;20246;-67
2023/05/13 02:45:17;;;;;;;3.80;2.83;;;;;;;9.10;100.00;98642.63;4897103;29;20324;-67
2023/05/13 02:47:50;;;;;;;3.37;2.63;;;;;;;9.05;100.00;98647.44;4896578;29;20337;-67
2023/05/13 02:50:17;;;;;;;3.13;2.40;;;;;;;9.00;100.00;98639.25;4897686;29;20240;-67
2023/05/13 02:52:44;;;;;;;4.30;2.90;;;;;;;8.91;100.00;98646.09;4883591;29;20251;-67
2023/05/13 02:55:11;;;;;;;4.17;2.63;;;;;;;8.81;100.00;98640.91;4898774;29;20336;-67
2023/05/13 02:57:37;;;;;;;3.30;3.00;;;;;;;8.77;100.00;98649.13;4899236;29;20249;-67
2023/05/13 03:00:05;;;;;;;6.40;3.00;;;;;;;8.75;100.00;98646.69;4896384;29;20253;-67
2023/05/13 03:02:34;;;;;;;2.77;2.47;;;;;;;8.69;100.00;98647.22;4882171;29;20895;-67
2023/05/13 03:05:02;;;;;;;3.73;2.60;;;;;;;8.63;100.00;98643.38;4879384;29;20253;-67
2023/05/13 03:07:29;;;;;;;3.70;2.87;;;;;;;8.53;100.00;98647.75;4901660;29;20324;-67
2023/05/13 03:10:01;;;;;;;3.87;2.53;;;;;;;8.50;100.00;98637.63;4895448;29;20241;-67
2023/05/13 03:12:28;;;;;;;4.67;2.70;;;;;;;8.41;100.00;98641.84;4896373;29;20245;-67
2023/05/13 03:15:01;;;;;;;3.53;2.43;;;;;;;8.37;100.00;98641.31;4896396;29;21779;-67
2023/05/13 03:17:29;;;;;;;3.63;2.30;;;;;;;8.34;100.00;98648.56;4898052;29;20340;-67
2023/05/13 03:20:02;;;;;;;4.00;2.90;;;;;;;8.28;100.00;98650.75;4879718;29;21450;-67
2023/05/13 03:22:30;;;;;;;3.00;2.70;;;;;;;8.20;100.00;98649.78;4897440;29;20228;-67
2023/05/13 03:25:01;;;;;;;4.13;2.70;;;;;;;8.19;100.00;98651.53;4896493;29;20249;-67
2023/05/13 03:27:34;;;;;;;3.30;3.00;;;;;;;8.13;100.00;98645.13;4883322;29;20230;-67
2023/05/13 03:30:01;;;;;;;3.77;2.70;;;;;;;8.07;100.00;98647.41;4894925;29;20295;-67
2023/05/13 03:32:29;;;;;;;6.10;2.90;;;;;;;8.04;100.00;98651.13;5107653;23;20868;-67
2023/05/13 03:35:03;;;;;;;3.20;2.73;;;;;;;8.01;100.00;98653.16;4906173;29;20319;-67
2023/05/13 03:37:31;;;;;;;3.90;2.87;;;;;;;7.95;100.00;98655.31;4900649;29;20230;-67
2023/05/13 03:40:01;;;;;;;3.63;2.80;;;;;;;7.87;100.00;98649.16;4901421;29;20249;-67
2023/05/13 03:42:29;;;;;;;3.27;2.80;;;;;;;7.82;100.00;98655.59;4913106;29;20850;-67
2023/05/13 03:45:04;;;;;;;4.83;2.90;;;;;;;7.85;100.00;98656.28;4919478;29;20247;-67
2023/05/13 03:47:33;;;;;;;3.53;3.20;;;;;;;7.79;100.00;98661.03;4923285;29;20231;-67
2023/05/13 03:50:09;;;;;;;2.97;2.67;;;;;;;7.70;100.00;98669.63;4904070;29;20232;-67
2023/05/13 03:52:41;;;;;;;3.80;3.20;;;;;;;7.68;100.00;98664.56;4907304;29;20228;-67
2023/05/13 03:55:09;;;;;;;3.10;2.80;;;;;;;7.64;100.00;98662.34;4920604;29;20239;-67
2023/05/13 03:57:36;;;;;;;4.63;3.10;;;;;;;7.67;100.00;98672.47;4897861;29;20597;-67
2023/05/13 04:00:03;;;;;;;5.43;3.10;;;;;;;7.62;100.00;98665.09;4905302;29;20243;-67
2023/05/13 04:02:41;;;;;;;3.67;2.87;;;;;;;7.63;100.00;98676.28;4908298;29;20291;-67
2023/05/13 04:05:12;;;;;;;7.83;2.97;;;;;;;7.62;100.00;98669.44;4920228;29;20243;-67
2023/05/13 04:07:38;;;;;;;4.20;2.90;;;;;;;7.60;100.00;98672.19;4908428;29;20223;-66
2023/05/13 04:10:06;;;;;;;5.23;3.07;;;;;;;7.59;100.00;98674.91;4901496;29;20239;-66
2023/05/13 04:12:33;;;;;;;3.23;2.73;;;;;;;7.55;100.00;98674.38;4907562;29;20245;-66
2023/05/13 04:15:01;;;;;;;3.80;3.00;;;;;;;7.57;100.00;98669.03;4918492;29;20814;-66
2023/05/13 04:17:28;;;;;;;3.63;3.07;;;;;;;7.57;100.00;98677.66;4908320;29;20222;-66
2023/05/13 04:20:01;;;;;;;3.93;2.87;;;;;;;7.59;100.00;98686.13;4919342;29;20719;-66
2023/05/13 04:22:29;;;;;;;5.33;2.80;;;;;;;7.58;100.00;98687.09;4908307;29;20234;-66
2023/05/13 04:25:01;;;;;;;3.80;3.30;;;;;;;7.60;100.00;98686.94;4904599;29;20297;-66
2023/05/13 04:27:27;;;;;;;4.30;2.80;;;;;;;7.65;100.00;98687.38;4908201;29;20610;-66
2023/05/13 04:30:19;;;;;;;6.97;3.03;;;;;;;7.65;100.00;98695.16;4905898;29;20710;-66
2023/05/13 04:32:47;;;;;;;5.33;3.20;;;;;;;7.72;100.00;98690.28;4909177;29;20232;-66
2023/05/13 04:35:14;;;;;;;3.63;3.00;;;;;;;7.76;100.00;98694.28;4907291;29;20230;-66
2023/05/13 04:37:46;;;;;;;3.30;2.93;;;;;;;7.80;100.00;98698.25;4899392;29;20617;-66
2023/05/13 04:40:15;;;;;;;6.10;3.03;;;;;;;7.76;100.00;98700.28;4925669;29;20304;-66
2023/05/13 04:42:42;;;;;;;3.60;3.30;;;;;;;7.77;100.00;98701.94;4911004;29;20257;-66
2023/05/13 04:45:10;;;;;;;3.83;3.23;;;;;;;7.79;100.00;98700.03;4923849;28;20390;-66
2023/05/13 04:47:36;;;;;;;4.13;3.30;;;;;;;7.86;100.00;98704.69;4925955;29;20232;-66
2023/05/13 04:50:04;;;;;;;4.67;3.47;;;;;;;7.88;100.00;98702.78;4900915;28;20231;-66
2023/05/13 04:52:32;;;;;;;3.57;3.20;;;;;;;7.91;100.00;98707.72;4910387;29;20742;-66
2023/05/13 04:55:03;;;;;;;4.30;3.80;;;;;;;7.98;100.00;98701.03;4907068;29;20233;-66
2023/05/13 04:57:30;;;;;;;11.53;8.90;;;;;;;8.00;100.00;98698.28;4925973;29;20236;-66
2023/05/13 05:00:01;;;;;;;6.00;3.97;;;;;;;8.05;100.00;98702.16;4923193;29;20334;-66
2023/05/13 05:02:31;;;;;;;3.93;3.53;;;;;;;8.11;100.00;98700.78;4909043;29;20250;-66
2023/05/13 05:05:01;;;;;;;5.83;3.17;;;;;;;8.13;100.00;98697.13;4906374;28;20267;-66
2023/05/13 05:07:28;;;;;;;5.93;3.50;;;;;;;8.14;100.00;98705.72;4909847;29;20279;-67
2023/05/13 05:10:21;;;;;;;4.37;3.20;;;;;;;8.16;100.00;98698.63;4907748;28;20704;-67
2023/05/13 05:12:53;;;;;;;4.90;3.80;;;;;;;8.21;100.00;98709.44;4905828;29;20235;-67
2023/05/13 05:15:21;;;;;;;5.10;2.90;;;;;;;8.26;100.00;98704.66;4909364;29;20229;-67
2023/05/13 05:17:50;;;;;;;4.63;3.40;;;;;;;8.31;100.00;98711.25;4906397;29;20230;-67
2023/05/13 05:20:16;;;;;;;6.53;3.23;;;;;;;8.41;100.00;98710.31;4908110;29;20251;-67
2023/05/13 05:22:43;;;;;;;3.87;2.90;;;;;;;8.49;100.00;98722.66;4909454;29;20331;-67
2023/05/13 05:25:12;;;;;;;4.03;2.80;;;;;;;8.54;100.00;98719.66;4925117;28;20238;-67
2023/05/13 05:27:40;;;;;;;5.57;2.60;;;;;;;8.61;100.00;98722.53;4902386;29;20237;-67
2023/05/13 05:30:08;;;;;;;4.50;2.70;;;;;;;8.73;100.00;98724.06;4897597;29;20893;-67
2023/05/13 05:32:36;;;;;;;5.83;3.10;;;;;;;8.85;100.00;98720.38;4910124;29;20233;-67
2023/05/13 05:35:04;;;;;;;3.37;2.50;;;;;;;8.97;100.00;98723.66;4897048;29;20238;-67
2023/05/13 05:37:32;;;;;;;3.50;2.90;;;;;;;9.11;100.00;98730.19;4909168;29;20228;-67
2023/05/13 05:40:01;;;;;;;3.63;2.10;;;;;;;9.24;100.00;98732.53;4921661;29;20325;-67
2023/05/13 05:42:29;;;;;;;2.40;2.20;;;;;;;9.41;100.00;98732.78;4909073;29;20585;-67
2023/05/13 05:45:03;;;;;;;2.50;2.20;;;;;;;9.62;100.00;98729.13;4921477;29;20237;-67
2023/05/13 05:47:30;;;;;;;4.13;2.60;;;;;;;9.94;100.00;98735.75;4907952;29;20244;-67
2023/05/13 05:50:01;;;;;;;3.83;2.47;;;;;;;10.07;100.00;98740.66;4905490;29;20250;-67
2023/05/13 05:52:28;;;;;;;2.47;2.00;;;;;;;10.24;100.00;98736.44;4910305;29;20324;-67
2023/05/13 05:55:20;;;;;;;2.80;2.07;;;;;;;10.44;100.00;98735.38;4905687;29;20285;-67
2023/05/13 05:57:47;;;;;;;2.20;2.00;;;;;;;10.64;100.00;98730.00;4911070;29;20261;-67
2023/05/13 06:00:16;;;;;;;3.47;2.30;;;;;;;10.77;100.00;98729.66;4910557;29;20309;-67
2023/05/13 06:02:42;;;;;;;4.43;1.97;;;;;;;10.91;100.00;98736.13;4907176;29;20342;-67
2023/05/13 06:05:11;;;;;;;4.23;1.80;;;;;;;11.06;100.00;98732.00;4899166;29;20239;-67
2023/05/13 06:07:40;;;;;;;4.17;2.40;;;;;;;11.13;100.00;98726.19;4915472;29;20241;-67
2023/05/13 06:10:07;;;;;;;6.57;2.53;;;;;;;11.17;100.00;98728.31;4921421;29;20761;-67
2023/05/13 06:12:35;;;;;;;3.77;2.07;;;;;;;11.30;100.00;98727.09;4907105;29;20233;-67
2023/05/13 06:15:02;;;;;;;2.30;2.10;;;;;;;11.30;100.00;98738.41;4905332;29;20239;-67
2023/05/13 06:17:29;;;;;;;2.87;1.73;;;;;;;11.36;100.00;98737.78;4910061;29;20233;-67
2023/05/13 06:20:01;;;;;;;1.87;1.73;;;;;;;11.40;100.00;98738.28;4921780;29;20596;-67
2023/05/13 06:22:28;;;;;;;2.50;2.30;;;;;;;11.34;100.00;98736.28;4899119;29;20578;-67
2023/05/13 06:25:01;;;;;;;2.80;2.27;;;;;;;11.18;100.00;98724.72;4920213;29;20416;-67
2023/05/13 06:27:27;;;;;;;7.50;2.60;;;;;;;11.14;100.00;98736.47;4907227;29;20222;-67
2023/05/13 06:30:19;;;;;;;3.17;1.90;;;;;;;11.12;100.00;98742.81;4906785;29;20249;-67
2023/05/13 06:32:47;;;;;;;5.97;2.00;;;;;;;11.15;100.00;98745.13;4908403;29;20674;-67
2023/05/13 06:35:14;;;;;;;1.93;1.70;;;;;;;11.10;98.29;98750.81;4912320;29;20230;-67
2023/05/13 06:37:41;;;;;;;2.20;1.77;;;;;;;11.30;98.06;98748.00;4907991;29;20233;-67
2023/05/13 06:40:09;;;;;;;4.83;2.00;;;;;;;11.38;95.67;98750.69;4906143;29;20256;-67
2023/05/13 06:42:42;;;;;;;2.00;1.80;;;;;;;11.44;99.44;98751.88;4908026;29;20261;-67
2023/05/13 06:45:22;;;;;;;4.37;1.93;;;;;;;11.63;95.19;98749.06;4922073;28;20257;-67
2023/05/13 06:47:51;;;;;;;5.37;1.97;;;;;;;11.85;91.67;98749.47;4906067;29;20252;-67
2023/05/13 06:50:18;;;;;;;3.07;1.70;;;;;;;12.10;90.10;98745.22;4906570;29;20236;-67
2023/05/13 06:52:46;;;;;;;2.90;1.53;;;;;;;12.09;89.26;98751.44;4906355;29;20685;-67
2023/05/13 06:55:13;;;;;;;1.87;1.70;;;;;;;12.19;90.48;98753.13;4908483;29;20304;-67
2023/05/13 06:57:42;;;;;;;2.20;1.83;;;;;;;12.22;87.75;98743.13;4907320;29;20249;-67
2023/05/13 07:00:09;;;;;;;2.90;1.87;;;;;;;12.20;88.81;98746.88;4905477;29;20242;-67
2023/05/13 07:02:36;;;;;;;2.90;1.90;;;;;;;12.33;88.58;98751.69;4923266;29;20699;-67
2023/05/13 07:05:04;;;;;;;3.20;1.80;;;;;;;12.35;89.14;98760.19;4905048;28;20772;-67
2023/05/13 07:07:31;;;;;;;10.13;2.00;;;;;;;12.25;88.04;98760.31;4909111;29;20560;-67
2023/05/13 07:10:01;;;;;;;3.03;2.00;;;;;;;12.28;88.02;98757.38;4904710;28;20242;-67
2023/05/13 07:12:28;;;;;;;2.73;1.83;;;;;;;12.39;88.28;98753.66;4908899;29;20247;-67
2023/05/13 07:15:19;;;;;;;4.93;2.10;;;;;;;12.41;89.79;98756.94;4906530;29;20310;-67
2023/05/13 07:17:46;;;;;;;2.90;1.93;;;;;;;12.54;88.39;98759.94;4906830;29;20230;-67
2023/05/13 07:20:14;;;;;;;3.33;2.13;;;;;;;12.52;88.05;98758.44;4908483;29;20231;-67
2023/05/13 07:22:41;;;;;;;2.17;1.97;;;;;;;12.61;86.88;98762.72;4907939;29;20246;-67
2023/05/13 07:25:09;;;;;;;3.90;2.20;;;;;;;12.79;85.59;98756.53;4905131;29;20243;-67
2023/05/13 07:27:36;;;;;;;3.77;2.20;;;;;;;12.93;84.97;98765.53;4908627;29;20238;-68
2023/05/13 07:30:03;;;;;;;4.83;2.37;;;;;;;12.80;85.09;98756.34;4905629;29;20238;-67
2023/05/13 07:32:30;;;;;;;2.40;2.07;;;;;;;12.82;85.29;98754.38;4908364;29;20228;-67
2023/05/13 07:35:01;;;;;;;3.57;2.17;;;;;;;12.87;83.17;98753.06;4905490;29;20216;-67
2023/05/13 07:37:29;;;;;;;2.43;2.23;;;;;;;13.02;84.14;98753.28;4908403;29;20331;-67
2023/05/13 07:40:02;;;;;;;2.40;2.00;;;;;;;13.01;82.24;98752.44;4905697;29;20247;-67
2023/05/13 07:42:28;;;;;;;3.47;2.10;;;;;;;12.94;82.70;98757.53;4908743;29;20595;-67
2023/05/13 07:45:01;;;;;;;3.30;1.80;;;;;;;13.07;81.74;98757.03;4919578;29;20686;-67
2023/05/13 07:47:30;;;;;;;3.07;1.97;;;;;;;13.13;82.57;98756.38;4908537;29;20234;-67
2023/05/13 07:50:01;;;;;;;5.73;1.90;;;;;;;13.36;83.20;98760.94;4905515;29;20223;-67
2023/05/13 07:52:29;;;;;;;2.20;2.00;;;;;;;13.37;80.57;98762.59;4907973;29;20254;-67
2023/05/13 07:55:01;;;;;;;3.07;2.00;;;;;;;13.63;78.92;98760.75;4905479;29;20245;-67
2023/05/13 07:57:28;;;;;;;2.90;2.20;;;;;;;13.76;78.42;98768.94;4908469;29;20231;-67
2023/05/13 08:00:19;;;;;;;3.90;1.90;;;;;;;13.82;74.89;98764.81;4905835;29;20278;-67
2023/05/13 08:02:46;;;;;;;2.33;1.90;;;;;;;14.33;76.01;98769.69;4904489;29;20232;-68
2023/05/13 08:05:13;;;;;;;1.90;1.70;;;;;;;14.23;71.77;98777.00;4921640;29;20703;-68
2023/05/13 08:07:41;;;;;;;2.30;2.00;;;;;;;14.35;72.76;98769.53;4908427;29;20688;-69
2023/05/13 08:10:08;;;;;;;2.00;1.80;;;;;;;14.72;72.35;98773.31;4905594;29;20262;-68
2023/05/13 08:12:34;;;;;;;1.73;1.60;;;;;;;14.86;72.33;98763.84;4911277;29;20240;-68
2023/05/13 08:15:02;;;;;;;3.53;1.83;;;;;;;15.15;71.11;98773.66;4907753;29;20308;-68
2023/05/13 08:17:29;;;;;;;2.70;1.60;;;;;;;15.43;69.17;98769.63;4912225;29;20661;-68
2023/05/13 08:20:02;;;;;;;2.90;1.93;;;;;;;15.66;67.40;98777.47;4909505;29;20228;-68
2023/05/13 08:22:28;;;;;;;1.93;1.60;;;;;;;15.50;67.72;98774.00;4911968;29;20260;-68
2023/05/13 08:25:03;;;;;;;2.93;1.70;;;;;;;15.60;67.39;98778.19;4908780;29;20335;-68
2023/05/13 08:27:29;;;;;;;2.13;1.80;;;;;;;16.01;66.21;98774.34;4911748;29;20249;-68
2023/05/13 08:30:01;;;;;;;2.30;1.80;;;;;;;16.24;66.56;98779.47;4908494;29;20233;-68
2023/05/13 08:32:28;;;;;;;4.27;1.77;;;;;;;16.46;64.26;98775.06;4911747;29;20233;-68
2023/05/13 08:35:20;;;;;;;1.80;1.47;;;;;;;16.07;63.50;98773.59;4908874;29;20280;-68
2023/05/13 08:37:46;;;;;;;2.13;1.87;;;;;;;16.23;66.34;98768.16;4922558;29;20229;-68
2023/05/13 08:40:15;;;;;;;4.20;1.60;;;;;;;16.40;63.98;98773.22;4911964;29;20245;-66
2023/05/13 08:42:43;;;;;;;4.33;1.83;;;;;;;16.33;63.79;98777.59;4911062;29;20257;-68
2023/05/13 08:45:11;;;;;;;2.43;1.80;;;;;;;16.56;62.55;98766.06;4908063;29;20242;-68
2023/05/13 08:47:46;;;;;;;3.83;1.40;;;;;;;16.45;63.92;98770.00;4911366;29;20293;-66
2023/05/13 08:50:13;;;;;;;3.03;1.80;;;;;;;16.52;62.63;98769.06;4908583;28;20275;-66
2023/05/13 08:52:39;;;;;;;5.57;1.83;;;;;;;15.62;64.88;98766.47;4910622;29;20233;-68
2023/05/13 08:55:08;;;;;;;2.10;1.77;;;;;;;15.24;68.07;98777.03;4922791;28;20239;-68
2023/05/13 08:57:36;;;;;;;2.87;2.00;;;;;;;15.24;67.44;98778.84;4911751;29;20684;-68
2023/05/13 09:00:03;;;;;;;4.83;2.07;;;;;;;14.72;70.08;98774.13;4908808;29;20301;-68
2023/05/13 09:02:30;;;;;;;4.13;1.93;;;;;;;14.45;71.59;98786.72;4910295;29;20700;-68
2023/05/13 09:05:05;;;;;;;4.37;2.10;;;;;;;14.50;70.43;98785.38;4906970;29;20228;-68
2023/05/13 09:07:32;;;;;;;2.53;2.20;;;;;;;14.84;70.83;98782.41;4911337;29;20244;-68
2023/05/13 09:10:01;;;;;;;2.20;2.00;;;;;;;14.96;70.63;98782.00;4908171;29;20245;-68
2023/05/13 09:12:49;;;;;;;4.93;2.30;;;;;;;14.72;71.27;98791.72;4911206;29;20297;-68
2023/05/13 09:15:17;;;;;;;2.80;2.10;;;;;;;15.16;68.87;98793.69;4907302;29;20291;-68
2023/05/13 09:17:47;;;;;;;2.60;2.23;;;;;;;15.09;71.61;98784.88;4908378;29;20241;-68
2023/05/13 09:20:15;;;;;;;3.53;2.10;;;;;;;15.35;68.32;98789.78;4910615;29;20249;-68
2023/05/13 09:22:45;;;;;;;2.60;2.10;;;;;;;15.48;68.51;98791.78;4910525;29;20236;-68
2023/05/13 09:25:13;;;;;;;5.40;2.20;;;;;;;15.41;70.55;98793.50;4898069;29;20236;-68
2023/05/13 09:27:42;;;;;;;2.57;2.10;;;;;;;15.23;67.39;98791.19;4911200;29;20771;-69
2023/05/13 09:30:10;;;;;;;4.53;2.15;;;;;;;15.67;68.98;98781.75;4908124;29;20438;-68
2023/05/13 09:32:37;;;;;;;3.13;2.00;;;;;;;15.92;67.09;98782.31;4910637;29;20320;-68
2023/05/13 09:35:15;;;;;;;3.07;2.33;;;;;;;16.12;65.98;98788.84;4906974;29;20736;-68
2023/05/13 09:37:45;;;;;;;4.70;2.10;;;;;;;16.11;66.86;98787.22;4910212;29;20237;-68
2023/05/13 09:40:13;;;;;;;9.97;2.60;;;;;;;15.78;67.33;98780.47;4878865;28;20459;-68
2023/05/13 09:42:41;;;;;;;2.17;1.93;;;;;;;16.07;66.92;98792.03;4895695;29;20222;-68
2023/05/13 09:45:10;;;;;;;3.70;2.10;;;;;;;16.21;65.49;98780.69;4907826;29;20255;-68
2023/05/13 09:47:37;;;;;;;4.33;2.13;;;;;;;16.55;67.13;98788.13;4910580;29;20232;-68
2023/05/13 09:50:08;;;;;;;3.73;2.03;;;;;;;16.14;64.85;98789.47;4907761;29;20578;-68
2023/05/13 09:52:36;;;;;;;2.70;1.73;;;;;;;16.53;63.49;98783.06;4910569;29;20232;-66
2023/05/13 09:55:04;;;;;;;6.57;2.00;;;;;;;16.29;66.46;98781.59;4907627;29;20244;-66
2023/05/13 09:57:31;;;;;;;2.57;1.73;;;;;;;16.16;65.96;98785.69;4909992;29;20233;-66
2023/05/13 10:00:04;;;;;;;3.93;2.20;;;;;;;16.28;65.18;98790.47;4907116;29;20324;-68
2023/05/13 10:02:39;;;;;;;1.87;1.70;;;;;;;15.91;64.68;98788.59;4909957;29;20247;-68
2023/05/13 10:05:09;;;;;;;2.80;1.80;;;;;;;16.07;66.45;98781.50;4907410;29;20228;-68
2023/05/13 10:07:37;;;;;;;2.10;1.70;;;;;;;15.62;66.75;98792.78;4907700;29;20641;-68
2023/05/13 10:10:07;;;;;;;3.10;2.17;;;;;;;15.63;66.74;98783.09;4907245;29;20236;-68
2023/05/13 10:12:35;;;;;;;2.53;1.80;;;;;;;15.63;66.99;98794.44;4908659;29;20229;-68
2023/05/13 10:15:02;;;;;;;4.47;2.83;;;;;;;15.40;66.38;98793.66;4906994;29;20249;-68
2023/05/13 10:17:30;;;;;;;3.63;2.00;;;;;;;15.85;69.63;98783.22;4924130;29;20289;-68
2023/05/13 10:20:05;;;;;;;2.20;1.90;;;;;;;15.73;65.47;98782.81;4907364;29;20332;-68
2023/05/13 10:22:33;;;;;;;2.83;1.87;;;;;;;16.22;64.10;98786.75;4909983;29;20235;-66
2023/05/13 10:25:03;;;;;;;3.90;1.80;;;;;;;16.26;64.26;98787.22;4906391;29;20309;-66
2023/05/13 10:27:38;;;;;;;2.63;1.90;;;;;;;15.89;64.74;98777.44;4909270;29;20337;-66
2023/05/13 10:30:09;;;;;;;4.20;1.90;;;;;;;15.54;67.39;98790.25;4906353;28;20782;-66
2023/05/13 10:32:38;;;;;;;2.80;1.60;;;;;;;16.13;64.32;98785.22;4907846;29;20312;-66
2023/05/13 10:35:10;;;;;;;2.47;1.70;;;;;;;15.83;65.63;98790.47;4906241;29;20315;-66
2023/05/13 10:37:54;;;;;;;1.63;1.53;;;;;;;15.88;64.66;98794.22;4909544;29;20273;-66
2023/05/13 10:40:41;;;;;;;2.43;1.93;;;;;;;16.41;65.06;98787.19;4908598;28;20719;-66
2023/05/13 10:43:15;;;;;;;2.17;1.53;;;;;;;16.91;63.11;98784.66;4906272;29;20288;-66
2023/05/13 10:45:45;;;;;;;4.03;1.80;;;;;;;16.32;63.33;98799.66;4908848;29;20232;-66
2023/05/13 10:48:13;;;;;;;2.33;1.50;;;;;;;16.32;62.21;98787.28;4907268;29;20241;-66
2023/05/13 10:50:51;;;;;;;1.63;1.33;;;;;;;16.28;63.72;98788.66;4909479;28;20236;-68
2023/05/13 10:53:20;;;;;;;4.97;1.63;;;;;;;16.53;62.50;98789.13;4906200;29;20571;-68
2023/05/13 10:55:47;;;;;;;2.00;1.50;;;;;;;15.94;64.63;98796.13;4906582;29;20308;-68
2023/05/13 10:58:15;;;;;;;2.53;1.53;;;;;;;16.60;61.75;98798.94;4908432;29;20706;-69
2023/05/13 11:00:43;;;;;;;2.70;1.60;;;;;;;16.34;62.90;98801.09;4909134;28;20232;-68
2023/05/13 11:03:11;;;;;;;1.63;1.47;;;;;;;15.90;63.39;98799.31;4906338;29;20237;-66
2023/05/13 11:05:41;;;;;;;1.53;1.43;;;;;;;16.22;62.96;98786.75;4909018;29;20256;-67
2023/05/13 11:08:08;;;;;;;3.90;1.30;;;;;;;16.99;62.65;98794.28;4920299;29;20239;-68
2023/05/13 11:10:35;;;;;;;2.10;1.70;;;;;;;16.52;61.92;98792.78;4908690;29;20229;-68
2023/05/13 11:13:23;;;;;;;2.20;1.30;;;;;;;16.33;63.44;98794.19;4903189;29;20242;-67
2023/05/13 11:15:51;;;;;;;1.30;1.20;;;;;;;16.70;59.85;98788.91;4895547;29;20285;-67
2023/05/13 11:18:19;;;;;;;2.27;1.00;;;;;;;16.18;60.98;98785.47;4900698;29;20297;-67
2023/05/13 11:20:52;;;;;;;1.57;1.17;;;;;;;17.02;61.09;98792.13;4898445;28;20236;-67
2023/05/13 11:23:19;;;;;;;1.37;1.27;;;;;;;16.93;60.36;98783.50;4901912;29;20841;-67
2023/05/13 11:25:46;;;;;;;1.17;1.00;;;;;;;16.77;60.73;98786.38;4899032;29;20237;-67
2023/05/13 11:28:17;;;;;;;2.20;1.30;;;;;;;17.67;57.46;98781.44;4902365;29;20250;-67
2023/05/13 11:30:53;;;;;;;2.40;1.30;;;;;;;17.28;57.86;98785.44;4899980;29;20239;-67
2023/05/13 11:33:20;;;;;;;1.10;0.90;;;;;;;16.95;59.01;98781.47;4902763;29;20239;-67
2023/05/13 11:35:55;;;;;;;0.90;0.90;;;;;;;17.38;59.16;98787.75;4914259;28;20724;-67
2023/05/13 11:38:25;;;;;;;2.13;1.10;;;;;;;16.63;59.60;98791.50;4893713;29;20234;-67
2023/05/13 11:40:52;;;;;;;3.10;1.33;;;;;;;16.69;59.24;98782.00;4898264;29;20241;-67
2023/05/13 11:43:22;;;;;;;1.73;1.17;;;;;;;17.39;58.99;98786.75;4900816;29;20239;-67